North Lakhimpur Airport
VELR : now visible

Airfield :











YOU CAN JOIN US ON...

 
LOGIN :

Register | Disclaimer

   EN    FR    IT 

 









Legend :    VFR   Marginal VFR   IFR   Intensive IFR   Very Intensive IFR
Visi :
Ceiling :
>= 8 km
>= 3000ft
5 to 8 km
1000 to 3000 ft
1500m to 5 km
500 to 1000 ft
800 to 1500m
200 to 500 ft
< 800m
< 200 ft
Symbols :   Thunderstorms  Fog  Heavy snow  Heavy precipitations  Wind > 20 kt






- Airport Elevation : 330 ft
- IATA code : IXI


VELR - North Lakhimpur

EXPIRED METARs :
  • 211300Z 01003KT 3500 BR FEW020 SCT100 30/25 Q1005
  • 211200Z 02002KT 4000 HZ FEW025 SCT100 33/24 Q1004

TAF TAF VELR
Valid from the 21 at 09:00 until the 21 at 18:00 UTC


210800Z 2109/2118 15006KT 5000 HZ FEW020 SCT100
BECMG 2113/2115 00000KT 3000 U2013RA BR SCT018 BKN090
VECF FIR / Asia



MET'MAP, your aeronautical weather chart ! - Copyright ORBIFLY December 2007 - Disclaimer

ORBIFLY MET'MAP TEAM :

Programming & Development : Alexandra Zaïnal
Original concept : Baudouin d'Aumeries
Technical & hardware support : Manuel Goepfert
Assistance : Marc-Olivier Méhu




SOURCES & CREDITS :

   NOAA       Earth
Advisory